Test XHTML 1.0 Strict Page for WU-History Testing
Station Historical Data
Daily Summary for March 20, 2017 Units:  Both    English   Metric
« Previous Day
Next Day »
Daily Weekly Monthly Yearly Custom
  High: Low: Average:
Temperature: 50.4 °F /  10.2 °C 39.6 °F /  4.2 °C 46.5 °F /  8.1 °C
Dew Point: 50.4 °F /  10.2 °C 39.0 °F /  3.9 °C 45.7 °F /  7.6 °C
Humidity: 100 % 78 % 97 %
Wind Speed: 16.3 mph /  26.2 km/h - 3 mph /  4.8 km/h
Wind Gust: 16.3 mph /  26.2 km/h - -
Wind:- - SW
Pressure: 29.66 in /  1004.3 hPa 29.50 in /  998.9 hPa -
Precipitation: 0.53 in /  13.46 mm    
Historical Graphs
 
 
Weather-Above Climate History
Untitled
Tabular Data for March 20, 2017
Time Temperature Dew Point Pressure Wind Wind Speed Wind Gust Humidity Rainfall Rate (Hourly) solar Conditions
00:01 50.0 °F /  10 °C 50.0 °F /  10 °C 29.66 in /  1004.3 hPa SE 1.2 mph /  1.9 km/h   100 % 0.00 in /  0 mm 12.0 W/m2 RA
00:06 50.2 °F /  10.1 °C 50.2 °F /  10.1 °C 29.66 in /  1004.3 hPa SSW 2.3 mph /  3.7 km/h   100 % 0.00 in /  0 mm 10.5 W/m2 RA
00:11 50.2 °F /  10.1 °C 50.2 °F /  10.1 °C 29.66 in /  1004.3 hPa SSW 10.6 mph /  17.1 km/h 10.6 mph /  17.1 km/h 100 % 0.00 in /  0 mm 0.0 W/m2 OVC
00:17 50.2 °F /  10.1 °C 50.2 °F /  10.1 °C 29.66 in /  1004.3 hPa North 2.3 mph /  3.7 km/h   100 % 0.00 in /  0 mm 12.0 W/m2 OVC
00:22 50.4 °F /  10.2 °C 50.4 °F /  10.2 °C 29.66 in /  1004.3 hPa East 3.5 mph /  5.6 km/h 3.5 mph /  5.6 km/h 100 % 0.00 in /  0 mm 0.0 W/m2 OVC
00:27 50.4 °F /  10.2 °C 50.4 °F /  10.2 °C 29.66 in /  1004.3 hPa WSW 1.1 mph /  1.8 km/h 1.1 mph /  1.8 km/h 100 % 0.00 in /  0 mm 0.0 W/m2 OVC
00:32 50.4 °F /  10.2 °C 50.4 °F /  10.2 °C 29.65 in /  1003.9 hPa Calm     100 % 0.00 in /  0 mm 10.5 W/m2 OVC
00:37 50.4 °F /  10.2 °C 50.4 °F /  10.2 °C 29.64 in /  1003.6 hPa West 2.5 mph /  4 km/h 2.5 mph /  4 km/h 100 % 0.00 in /  0 mm 0.0 W/m2 OVC
00:42 50.4 °F /  10.2 °C 50.4 °F /  10.2 °C 29.65 in /  1003.9 hPa WNW 4.0 mph /  6.4 km/h 4.0 mph /  6.4 km/h 100 % 0.00 in /  0 mm 0.0 W/m2 OVC
00:47 50.4 °F /  10.2 °C 50.4 °F /  10.2 °C 29.65 in /  1003.9 hPa ENE 1.5 mph /  2.4 km/h 1.5 mph /  2.4 km/h 100 % 0.00 in /  0 mm 12.0 W/m2 OVC
00:52 50.4 °F /  10.2 °C 50.4 °F /  10.2 °C 29.64 in /  1003.6 hPa Calm     100 % 0.00 in /  0 mm 0.0 W/m2 OVC
00:57 50.2 °F /  10.1 °C 50.2 °F /  10.1 °C 29.64 in /  1003.6 hPa NW 3.6 mph /  5.8 km/h 3.6 mph /  5.8 km/h 100 % 0.00 in /  0 mm 0.0 W/m2 OVC
01:02 50.2 °F /  10.1 °C 50.2 °F /  10.1 °C 29.64 in /  1003.6 hPa South 2.3 mph /  3.7 km/h 2.3 mph /  3.7 km/h 100 % 0.00 in /  0 mm 10.5 W/m2 OVC
01:07 50.2 °F /  10.1 °C 50.2 °F /  10.1 °C 29.64 in /  1003.6 hPa SW 3.5 mph /  5.6 km/h 3.5 mph /  5.6 km/h 100 % 0.00 in /  0 mm 0.0 W/m2 OVC
01:12 50.2 °F /  10.1 °C 50.2 °F /  10.1 °C 29.64 in /  1003.6 hPa WSW 4.7 mph /  7.6 km/h 4.7 mph /  7.6 km/h 100 % 0.00 in /  0 mm 0.0 W/m2 OVC
01:17 50.2 °F /  10.1 °C 50.2 °F /  10.1 °C 29.63 in /  1003.3 hPa West 9.9 mph /  15.9 km/h 9.9 mph /  15.9 km/h 100 % 0.00 in /  0 mm 12.0 W/m2 OVC
01:22 50.0 °F /  10 °C 50.0 °F /  10 °C 29.64 in /  1003.6 hPa WSW 5.8 mph /  9.3 km/h 5.8 mph /  9.3 km/h 100 % 0.00 in /  0 mm 0.0 W/m2 OVC
01:27 50.2 °F /  10.1 °C 50.2 °F /  10.1 °C 29.63 in /  1003.3 hPa SW 1.2 mph /  1.9 km/h   100 % 0.00 in /  0 mm 0.0 W/m2 OVC
01:32 50.0 °F /  10 °C 50.0 °F /  10 °C 29.63 in /  1003.3 hPa SSW 1.7 mph /  2.7 km/h 1.7 mph /  2.7 km/h 100 % 0.00 in /  0 mm 12.0 W/m2 OVC
01:37 49.8 °F /  9.9 °C 49.8 °F /  9.9 °C 29.62 in /  1002.9 hPa ENE 9.2 mph /  14.8 km/h   100 % 0.00 in /  0 mm 10.5 W/m2 OVC
01:42 50.0 °F /  10 °C 50.0 °F /  10 °C 29.62 in /  1002.9 hPa WSW 7.0 mph /  11.3 km/h 7.0 mph /  11.3 km/h 100 % 0.00 in /  0 mm 0.0 W/m2 OVC
01:47 50.0 °F /  10 °C 50.0 °F /  10 °C 29.62 in /  1002.9 hPa South 6.9 mph /  11.1 km/h 6.9 mph /  11.1 km/h 100 % 0.00 in /  0 mm 12.0 W/m2 OVC
01:53 50.0 °F /  10 °C 50.0 °F /  10 °C 29.62 in /  1002.9 hPa SSE 4.0 mph /  6.4 km/h 4.0 mph /  6.4 km/h 100 % 0.00 in /  0 mm 10.5 W/m2 OVC
01:58 49.8 °F /  9.9 °C 49.8 °F /  9.9 °C 29.62 in /  1002.9 hPa NE 1.4 mph /  2.3 km/h 1.4 mph /  2.3 km/h 100 % 0.00 in /  0 mm 0.0 W/m2 OVC
02:03 49.8 °F /  9.9 °C 49.8 °F /  9.9 °C 29.62 in /  1002.9 hPa WSW 6.9 mph /  11.1 km/h 6.9 mph /  11.1 km/h 100 % 0.00 in /  0 mm 10.5 W/m2 OVC
02:08 49.6 °F /  9.8 °C 49.6 °F /  9.8 °C 29.62 in /  1002.9 hPa SSW 5.8 mph /  9.3 km/h 5.8 mph /  9.3 km/h 100 % 0.00 in /  0 mm 10.5 W/m2 OVC
02:13 49.5 °F /  9.7 °C 49.5 °F /  9.7 °C 29.62 in /  1002.9 hPa NW 2.3 mph /  3.7 km/h 2.3 mph /  3.7 km/h 100 % 0.00 in /  0 mm 0.0 W/m2 OVC
02:18 49.6 °F /  9.8 °C 49.6 °F /  9.8 °C 29.62 in /  1002.9 hPa SW 11.5 mph /  18.5 km/h 11.5 mph /  18.5 km/h 100 % 0.00 in /  0 mm 10.5 W/m2 OVC
02:23 49.6 °F /  9.8 °C 49.6 °F /  9.8 °C 29.62 in /  1002.9 hPa SSW 3.5 mph /  5.6 km/h 3.5 mph /  5.6 km/h 100 % 0.00 in /  0 mm 10.5 W/m2 OVC
02:28 49.8 °F /  9.9 °C 49.8 °F /  9.9 °C 29.61 in /  1002.6 hPa SW 2.5 mph /  4 km/h 2.5 mph /  4 km/h 100 % 0.00 in /  0 mm 0.0 W/m2 OVC
02:33 49.8 °F /  9.9 °C 49.8 °F /  9.9 °C 29.61 in /  1002.6 hPa SW 9.7 mph /  15.6 km/h 9.7 mph /  15.6 km/h 100 % 0.00 in /  0 mm 10.5 W/m2 OVC
02:38 49.8 °F /  9.9 °C 49.8 °F /  9.9 °C 29.62 in /  1002.9 hPa SE 9.2 mph /  14.8 km/h   100 % 0.00 in /  0 mm 9.0 W/m2 OVC
02:43 49.8 °F /  9.9 °C 49.8 °F /  9.9 °C 29.61 in /  1002.6 hPa WNW 4.0 mph /  6.4 km/h 4.0 mph /  6.4 km/h 100 % 0.00 in /  0 mm 0.0 W/m2 OVC
02:48 49.8 °F /  9.9 °C 49.8 °F /  9.9 °C 29.60 in /  1002.3 hPa West 8.1 mph /  13 km/h 8.1 mph /  13 km/h 100 % 0.00 in /  0 mm 10.5 W/m2 OVC
02:53 49.8 °F /  9.9 °C 49.8 °F /  9.9 °C 29.60 in /  1002.3 hPa West 1.7 mph /  2.7 km/h 1.7 mph /  2.7 km/h 100 % 0.00 in /  0 mm 12.0 W/m2 OVC
02:58 49.8 °F /  9.9 °C 49.8 °F /  9.9 °C 29.60 in /  1002.3 hPa Calm     100 % 0.00 in /  0 mm 0.0 W/m2 OVC
03:03 49.8 °F /  9.9 °C 49.8 °F /  9.9 °C 29.60 in /  1002.3 hPa Calm     100 % 0.00 in /  0 mm 10.5 W/m2 OVC
03:08 49.8 °F /  9.9 °C 49.8 °F /  9.9 °C 29.60 in /  1002.3 hPa Calm     100 % 0.00 in /  0 mm 10.5 W/m2 OVC
03:13 49.8 °F /  9.9 °C 49.8 °F /  9.9 °C 29.59 in /  1001.9 hPa SSE 1.2 mph /  1.9 km/h 1.2 mph /  1.9 km/h 100 % 0.00 in /  0 mm 0.0 W/m2 OVC
03:18 49.8 °F /  9.9 °C 49.8 °F /  9.9 °C 29.60 in /  1002.3 hPa Calm     100 % 0.00 in /  0 mm 10.5 W/m2 OVC
03:24 49.8 °F /  9.9 °C 49.8 °F /  9.9 °C 29.60 in /  1002.3 hPa SSE 3.5 mph /  5.6 km/h   100 % 0.00 in /  0 mm 10.5 W/m2 OVC
03:29 49.6 °F /  9.8 °C 49.6 °F /  9.8 °C 29.60 in /  1002.3 hPa Calm     100 % 0.01 in /  0.25 mm 0.0 W/m2 RA
03:34 49.5 °F /  9.7 °C 49.5 °F /  9.7 °C 29.60 in /  1002.3 hPa NNE 1.5 mph /  2.4 km/h 1.5 mph /  2.4 km/h 100 % 0.01 in /  0.25 mm 10.5 W/m2 RA
03:39 49.5 °F /  9.7 °C 49.5 °F /  9.7 °C 29.59 in /  1001.9 hPa WSW 1.2 mph /  1.9 km/h   100 % 0.02 in /  0.51 mm 12.0 W/m2 RA
03:44 49.5 °F /  9.7 °C 49.5 °F /  9.7 °C 29.59 in /  1001.9 hPa Calm     100 % 0.02 in /  0.51 mm 0.0 W/m2 RA
03:49 49.3 °F /  9.6 °C 49.3 °F /  9.6 °C 29.58 in /  1001.6 hPa Calm     100 % 0.02 in /  0.51 mm 10.5 W/m2 RA
03:54 49.3 °F /  9.6 °C 49.3 °F /  9.6 °C 29.58 in /  1001.6 hPa SW 2.3 mph /  3.7 km/h 2.3 mph /  3.7 km/h 100 % 0.02 in /  0.51 mm 10.5 W/m2 RA
03:59 49.1 °F /  9.5 °C 49.1 °F /  9.5 °C 29.58 in /  1001.6 hPa Calm     100 % 0.03 in /  0.76 mm 10.5 W/m2 RA
04:04 49.1 °F /  9.5 °C 49.1 °F /  9.5 °C 29.58 in /  1001.6 hPa SSW 2.3 mph /  3.7 km/h   100 % 0.03 in /  0.76 mm 10.5 W/m2 RA
04:09 49.1 °F /  9.5 °C 49.1 °F /  9.5 °C 29.58 in /  1001.6 hPa Calm     100 % 0.03 in /  0.76 mm 10.5 W/m2
04:14 48.9 °F /  9.4 °C 48.9 °F /  9.4 °C 29.58 in /  1001.6 hPa Calm     100 % 0.03 in /  0.76 mm 0.0 W/m2 OVC
04:19 48.9 °F /  9.4 °C 48.9 °F /  9.4 °C 29.58 in /  1001.6 hPa Calm     100 % 0.03 in /  0.76 mm 0.0 W/m2 OVC
04:24 48.9 °F /  9.4 °C 48.9 °F /  9.4 °C 29.58 in /  1001.6 hPa Calm     100 % 0.03 in /  0.76 mm 9.0 W/m2 OVC
04:29 48.9 °F /  9.4 °C 48.9 °F /  9.4 °C 29.58 in /  1001.6 hPa Calm     100 % 0.02 in /  0.51 mm 10.5 W/m2 OVC
04:34 48.9 °F /  9.4 °C 48.9 °F /  9.4 °C 29.58 in /  1001.6 hPa Calm     100 % 0.02 in /  0.51 mm 0.0 W/m2 OVC
04:39 48.7 °F /  9.3 °C 48.7 °F /  9.3 °C 29.58 in /  1001.6 hPa Calm     100 % 0.02 in /  0.51 mm 10.5 W/m2 OVC
04:44 48.7 °F /  9.3 °C 48.7 °F /  9.3 °C 29.58 in /  1001.6 hPa West 1.7 mph /  2.7 km/h 1.7 mph /  2.7 km/h 100 % 0.02 in /  0.51 mm 10.5 W/m2 OVC
04:49 48.6 °F /  9.2 °C 48.6 °F /  9.2 °C 29.58 in /  1001.6 hPa Calm     100 % 0.01 in /  0.25 mm 0.0 W/m2 OVC
04:54 48.6 °F /  9.2 °C 48.6 °F /  9.2 °C 29.58 in /  1001.6 hPa Calm     100 % 0.01 in /  0.25 mm 10.5 W/m2 OVC
04:59 48.6 °F /  9.2 °C 48.6 °F /  9.2 °C 29.57 in /  1001.2 hPa SSW 2.2 mph /  3.5 km/h 2.2 mph /  3.5 km/h 100 % 0.00 in /  0 mm 10.5 W/m2 OVC
05:04 48.7 °F /  9.3 °C 48.7 °F /  9.3 °C 29.58 in /  1001.6 hPa Calm     100 % 0.00 in /  0 mm 0.0 W/m2 OVC
05:11 48.7 °F /  9.3 °C 48.7 °F /  9.3 °C 29.58 in /  1001.6 hPa Calm     100 % 0.00 in /  0 mm 10.5 W/m2 OVC
05:16 48.6 °F /  9.2 °C 48.6 °F /  9.2 °C 29.57 in /  1001.2 hPa South 1.7 mph /  2.7 km/h 1.7 mph /  2.7 km/h 100 % 0.00 in /  0 mm 10.5 W/m2 OVC
05:21 48.6 °F /  9.2 °C 48.6 °F /  9.2 °C 29.57 in /  1001.2 hPa Calm     100 % 0.00 in /  0 mm 0.0 W/m2 OVC
05:26 48.6 °F /  9.2 °C 48.6 °F /  9.2 °C 29.57 in /  1001.2 hPa Calm     100 % 0.00 in /  0 mm 12.0 W/m2 OVC
05:31 48.6 °F /  9.2 °C 48.6 °F /  9.2 °C 29.57 in /  1001.2 hPa SSW 3.5 mph /  5.6 km/h 3.5 mph /  5.6 km/h 100 % 0.00 in /  0 mm 10.5 W/m2 OVC
05:36 48.6 °F /  9.2 °C 48.6 °F /  9.2 °C 29.57 in /  1001.2 hPa SSE 2.3 mph /  3.7 km/h 2.3 mph /  3.7 km/h 100 % 0.00 in /  0 mm 0.0 W/m2 OVC
05:41 48.6 °F /  9.2 °C 48.6 °F /  9.2 °C 29.57 in /  1001.2 hPa SSE 1.2 mph /  1.9 km/h   100 % 0.00 in /  0 mm 12.0 W/m2 OVC
05:46 48.6 °F /  9.2 °C 48.6 °F /  9.2 °C 29.57 in /  1001.2 hPa SE 2.3 mph /  3.7 km/h 2.3 mph /  3.7 km/h 100 % 0.00 in /  0 mm 0.0 W/m2 OVC
05:51 48.4 °F /  9.1 °C 48.4 °F /  9.1 °C 29.57 in /  1001.2 hPa WSW 4.6 mph /  7.4 km/h 4.6 mph /  7.4 km/h 100 % 0.01 in /  0.25 mm 0.0 W/m2 RA
05:56 48.4 °F /  9.1 °C 48.4 °F /  9.1 °C 29.56 in /  1000.9 hPa SE 1.9 mph /  3.1 km/h 1.9 mph /  3.1 km/h 100 % 0.01 in /  0.25 mm 9.0 W/m2 RA
06:01 48.4 °F /  9.1 °C 48.4 °F /  9.1 °C 29.56 in /  1000.9 hPa WSW 1.2 mph /  1.9 km/h 1.2 mph /  1.9 km/h 100 % 0.01 in /  0.25 mm 0.0 W/m2
06:06 48.4 °F /  9.1 °C 48.4 °F /  9.1 °C 29.56 in /  1000.9 hPa South 1.5 mph /  2.4 km/h 1.5 mph /  2.4 km/h 100 % 0.01 in /  0.25 mm 0.0 W/m2 OVC
06:11 48.4 °F /  9.1 °C 48.4 °F /  9.1 °C 29.56 in /  1000.9 hPa Calm     100 % 0.01 in /  0.25 mm 12.0 W/m2
06:16 48.4 °F /  9.1 °C 48.4 °F /  9.1 °C 29.56 in /  1000.9 hPa SE 1.2 mph /  1.9 km/h   100 % 0.01 in /  0.25 mm 10.5 W/m2
06:21 48.4 °F /  9.1 °C 48.4 °F /  9.1 °C 29.56 in /  1000.9 hPa Calm     100 % 0.01 in /  0.25 mm 12.0 W/m2
06:26 48.2 °F /  9 °C 48.2 °F /  9 °C 29.56 in /  1000.9 hPa South 1.2 mph /  1.9 km/h   100 % 0.01 in /  0.25 mm 16.5 W/m2
06:31 48.2 °F /  9 °C 48.2 °F /  9 °C 29.56 in /  1000.9 hPa Calm     100 % 0.01 in /  0.25 mm 0.1 W/m2
06:36 48.2 °F /  9 °C 48.2 °F /  9 °C 29.56 in /  1000.9 hPa WSW 1.2 mph /  1.9 km/h 1.2 mph /  1.9 km/h 100 % 0.01 in /  0.25 mm 0.2 W/m2
06:41 48.2 °F /  9 °C 48.2 °F /  9 °C 29.55 in /  1000.6 hPa SSE 1.7 mph /  2.7 km/h 1.7 mph /  2.7 km/h 100 % 0.01 in /  0.25 mm 0.2 W/m2
06:46 48.2 °F /  9 °C 48.2 °F /  9 °C 29.55 in /  1000.6 hPa Calm     100 % 0.01 in /  0.25 mm 12.0 W/m2
06:51 48.2 °F /  9 °C 48.2 °F /  9 °C 29.55 in /  1000.6 hPa Calm     100 % 0.00 in /  0 mm 0.9 W/m2 CLR
06:57 48.4 °F /  9.1 °C 48.4 °F /  9.1 °C 29.55 in /  1000.6 hPa South 5.7 mph /  9.2 km/h 5.7 mph /  9.2 km/h 100 % 0.00 in /  0 mm 1.5 W/m2 CLR
07:02 48.4 °F /  9.1 °C 48.4 °F /  9.1 °C 29.55 in /  1000.6 hPa Calm     100 % 0.00 in /  0 mm 2.0 W/m2 CLR
07:07 48.6 °F /  9.2 °C 48.6 °F /  9.2 °C 29.55 in /  1000.6 hPa SSE 4.8 mph /  7.7 km/h 4.8 mph /  7.7 km/h 100 % 0.00 in /  0 mm 4.3 W/m2 CLR
07:12 48.6 °F /  9.2 °C 48.6 °F /  9.2 °C 29.54 in /  1000.2 hPa SSE 3.5 mph /  5.6 km/h 3.5 mph /  5.6 km/h 100 % 0.00 in /  0 mm 25.5 W/m2 CLR
07:17 48.7 °F /  9.3 °C 48.7 °F /  9.3 °C 29.54 in /  1000.2 hPa South 2.3 mph /  3.7 km/h 2.3 mph /  3.7 km/h 100 % 0.00 in /  0 mm 5.8 W/m2 CLR
07:22 48.9 °F /  9.4 °C 48.9 °F /  9.4 °C 29.54 in /  1000.2 hPa Calm     100 % 0.00 in /  0 mm 6.5 W/m2 CLR
07:27 48.9 °F /  9.4 °C 48.9 °F /  9.4 °C 29.54 in /  1000.2 hPa SSW 1.7 mph /  2.7 km/h 1.7 mph /  2.7 km/h 100 % 0.00 in /  0 mm 24.0 W/m2 CLR
07:32 48.7 °F /  9.3 °C 48.7 °F /  9.3 °C 29.53 in /  999.9 hPa ENE 1.5 mph /  2.4 km/h 1.5 mph /  2.4 km/h 100 % 0.02 in /  0.51 mm 7.4 W/m2 RA
07:37 48.6 °F /  9.2 °C 48.6 °F /  9.2 °C 29.53 in /  999.9 hPa South 1.2 mph /  1.9 km/h 1.2 mph /  1.9 km/h 100 % 0.02 in /  0.51 mm 7.6 W/m2 RA
07:42 48.4 °F /  9.1 °C 48.4 °F /  9.1 °C 29.52 in /  999.5 hPa SSW 1.4 mph /  2.3 km/h 1.4 mph /  2.3 km/h 100 % 0.02 in /  0.51 mm 10.7 W/m2 RA
07:47 48.2 °F /  9 °C 48.2 °F /  9 °C 29.52 in /  999.5 hPa Calm     100 % 0.02 in /  0.51 mm 18.1 W/m2
07:52 48.2 °F /  9 °C 48.2 °F /  9 °C 29.52 in /  999.5 hPa Calm     100 % 0.02 in /  0.51 mm 11.0 W/m2
07:57 48.2 °F /  9 °C 48.2 °F /  9 °C 29.52 in /  999.5 hPa Calm     100 % 0.02 in /  0.51 mm 13.1 W/m2 RA
08:02 48.4 °F /  9.1 °C 48.4 °F /  9.1 °C 29.52 in /  999.5 hPa Calm     100 % 0.02 in /  0.51 mm 17.2 W/m2 RA
08:07 48.4 °F /  9.1 °C 48.4 °F /  9.1 °C 29.52 in /  999.5 hPa WSW 2.3 mph /  3.7 km/h 2.3 mph /  3.7 km/h 100 % 0.03 in /  0.76 mm 15.1 W/m2 RA
08:12 48.4 °F /  9.1 °C 48.4 °F /  9.1 °C 29.51 in /  999.2 hPa Calm     100 % 0.03 in /  0.76 mm 49.5 W/m2 RA
08:17 48.4 °F /  9.1 °C 48.4 °F /  9.1 °C 29.51 in /  999.2 hPa Calm     100 % 0.04 in /  1.02 mm 14.4 W/m2 RA
08:22 48.2 °F /  9 °C 48.2 °F /  9 °C 29.51 in /  999.2 hPa SSW 2.3 mph /  3.7 km/h   100 % 0.05 in /  1.27 mm 9.8 W/m2 RA
08:27 48.4 °F /  9.1 °C 48.4 °F /  9.1 °C 29.51 in /  999.2 hPa Calm     100 % 0.06 in /  1.52 mm 28.5 W/m2 RA
08:32 48.4 °F /  9.1 °C 48.4 °F /  9.1 °C 29.51 in /  999.2 hPa Calm     100 % 0.05 in /  1.27 mm 15.3 W/m2 RA
08:37 48.4 °F /  9.1 °C 48.4 °F /  9.1 °C 29.50 in /  998.9 hPa Calm     100 % 0.06 in /  1.52 mm 15.9 W/m2 RA
08:43 48.6 °F /  9.2 °C 48.6 °F /  9.2 °C 29.51 in /  999.2 hPa NE 1.2 mph /  1.9 km/h   100 % 0.07 in /  1.78 mm 16.5 W/m2 RA
08:48 48.6 °F /  9.2 °C 48.6 °F /  9.2 °C 29.51 in /  999.2 hPa Calm     100 % 0.07 in /  1.78 mm 14.1 W/m2 RA
08:58 48.4 °F /  9.1 °C 48.4 °F /  9.1 °C 29.51 in /  999.2 hPa SW 1.5 mph /  2.4 km/h 1.5 mph /  2.4 km/h 100 % 0.10 in /  2.54 mm 29.8 W/m2 RA
09:03 48.2 °F /  9 °C 48.2 °F /  9 °C 29.51 in /  999.2 hPa Calm     100 % 0.12 in /  3.05 mm 28.7 W/m2 RA
09:08 48.2 °F /  9 °C 48.2 °F /  9 °C 29.51 in /  999.2 hPa WNW 1.2 mph /  1.9 km/h 1.2 mph /  1.9 km/h 100 % 0.12 in /  3.05 mm 26.9 W/m2 RA
09:13 48.2 °F /  9 °C 48.2 °F /  9 °C 29.51 in /  999.2 hPa WSW 1.2 mph /  1.9 km/h   100 % 0.13 in /  3.3 mm 31.5 W/m2 RA
09:18 48.0 °F /  8.9 °C 48.0 °F /  8.9 °C 29.50 in /  998.9 hPa Calm     100 % 0.14 in /  3.56 mm 28.7 W/m2 RA
09:23 48.0 °F /  8.9 °C 48.0 °F /  8.9 °C 29.50 in /  998.9 hPa Calm     100 % 0.13 in /  3.3 mm 46.7 W/m2 RA
09:28 48.2 °F /  9 °C 48.2 °F /  9 °C 29.51 in /  999.2 hPa West 4.8 mph /  7.7 km/h 4.8 mph /  7.7 km/h 100 % 0.13 in /  3.3 mm 79.5 W/m2 RA
09:33 48.6 °F /  9.2 °C 48.6 °F /  9.2 °C 29.50 in /  998.9 hPa Calm     100 % 0.13 in /  3.3 mm 77.9 W/m2 RA
09:38 48.6 °F /  9.2 °C 48.6 °F /  9.2 °C 29.50 in /  998.9 hPa WSW 10.4 mph /  16.7 km/h 10.4 mph /  16.7 km/h 100 % 0.13 in /  3.3 mm 61.4 W/m2 RA
09:43 48.6 °F /  9.2 °C 48.6 °F /  9.2 °C 29.51 in /  999.2 hPa SW 1.2 mph /  1.9 km/h 1.2 mph /  1.9 km/h 100 % 0.13 in /  3.3 mm 37.5 W/m2 RA
09:48 48.6 °F /  9.2 °C 48.6 °F /  9.2 °C 29.51 in /  999.2 hPa SW 0.6 mph /  1 km/h 0.6 mph /  1 km/h 100 % 0.13 in /  3.3 mm 37.6 W/m2 RA
09:53 48.6 °F /  9.2 °C 48.6 °F /  9.2 °C 29.51 in /  999.2 hPa Calm     100 % 0.13 in /  3.3 mm 60.1 W/m2 RA
09:58 48.6 °F /  9.2 °C 48.6 °F /  9.2 °C 29.51 in /  999.2 hPa Calm     100 % 0.10 in /  2.54 mm 91.5 W/m2 RA
10:03 48.4 °F /  9.1 °C 48.4 °F /  9.1 °C 29.51 in /  999.2 hPa SE 5.0 mph /  8 km/h 5.0 mph /  8 km/h 100 % 0.09 in /  2.29 mm 99.8 W/m2 RA
10:08 48.4 °F /  9.1 °C 48.4 °F /  9.1 °C 29.51 in /  999.2 hPa SW 1.7 mph /  2.7 km/h 1.7 mph /  2.7 km/h 100 % 0.09 in /  2.29 mm 93.8 W/m2 RA
10:13 48.2 °F /  9 °C 48.2 °F /  9 °C 29.51 in /  999.2 hPa West 2.3 mph /  3.7 km/h   100 % 0.08 in /  2.03 mm 64.5 W/m2 OVC
10:19 48.0 °F /  8.9 °C 48.0 °F /  8.9 °C 29.51 in /  999.2 hPa ESE 3.5 mph /  5.6 km/h 3.5 mph /  5.6 km/h 100 % 0.05 in /  1.27 mm 37.4 W/m2 OVC
10:24 48.2 °F /  9 °C 48.2 °F /  9 °C 29.51 in /  999.2 hPa Calm     100 % 0.06 in /  1.52 mm 60.1 W/m2 RA
10:29 48.0 °F /  8.9 °C 48.0 °F /  8.9 °C 29.51 in /  999.2 hPa Calm     100 % 0.05 in /  1.27 mm 51.0 W/m2 RA
10:34 48.0 °F /  8.9 °C 48.0 °F /  8.9 °C 29.51 in /  999.2 hPa Calm     100 % 0.05 in /  1.27 mm 62.2 W/m2 RA
10:39 48.0 °F /  8.9 °C 48.0 °F /  8.9 °C 29.51 in /  999.2 hPa WSW 0.6 mph /  1 km/h 0.6 mph /  1 km/h 100 % 0.04 in /  1.02 mm 60.8 W/m2 RA
10:44 48.0 °F /  8.9 °C 48.0 °F /  8.9 °C 29.51 in /  999.2 hPa WSW 2.3 mph /  3.7 km/h 2.3 mph /  3.7 km/h 100 % 0.05 in /  1.27 mm 42.0 W/m2 RA
10:49 47.3 °F /  8.5 °C 47.3 °F /  8.5 °C 29.52 in /  999.5 hPa SSW 4.8 mph /  7.7 km/h 4.8 mph /  7.7 km/h 100 % 0.06 in /  1.52 mm 57.2 W/m2 RA
10:54 47.1 °F /  8.4 °C 47.1 °F /  8.4 °C 29.52 in /  999.5 hPa SSW 2.3 mph /  3.7 km/h 2.3 mph /  3.7 km/h 100 % 0.06 in /  1.52 mm 56.2 W/m2 RA
10:59 46.8 °F /  8.2 °C 46.8 °F /  8.2 °C 29.52 in /  999.5 hPa Calm     100 % 0.08 in /  2.03 mm 67.5 W/m2 RA
11:04 46.8 °F /  8.2 °C 46.8 °F /  8.2 °C 29.52 in /  999.5 hPa Calm     100 % 0.08 in /  2.03 mm 59.0 W/m2 RA
11:09 46.9 °F /  8.3 °C 46.9 °F /  8.3 °C 29.52 in /  999.5 hPa Calm     100 % 0.10 in /  2.54 mm 68.8 W/m2 RA
11:14 47.1 °F /  8.4 °C 47.1 °F /  8.4 °C 29.52 in /  999.5 hPa Calm     100 % 0.11 in /  2.79 mm 87.0 W/m2 RA
11:19 47.3 °F /  8.5 °C 47.3 °F /  8.5 °C 29.52 in /  999.5 hPa Calm     100 % 0.11 in /  2.79 mm 68.4 W/m2 RA
11:24 47.3 °F /  8.5 °C 47.3 °F /  8.5 °C 29.52 in /  999.5 hPa Calm     100 % 0.12 in /  3.05 mm 30.1 W/m2 RA
11:29 47.1 °F /  8.4 °C 47.1 °F /  8.4 °C 29.52 in /  999.5 hPa Calm     100 % 0.13 in /  3.3 mm 24.0 W/m2 RA
11:34 46.6 °F /  8.1 °C 46.6 °F /  8.1 °C 29.52 in /  999.5 hPa ENE 1.2 mph /  1.9 km/h 1.2 mph /  1.9 km/h 100 % 0.14 in /  3.56 mm 24.8 W/m2 RA
11:40 46.2 °F /  7.9 °C 46.2 °F /  7.9 °C 29.52 in /  999.5 hPa Calm     100 % 0.17 in /  4.32 mm 30.6 W/m2 RA
11:45 46.2 °F /  7.9 °C 46.2 °F /  7.9 °C 29.52 in /  999.5 hPa Calm     100 % 0.17 in /  4.32 mm 31.5 W/m2 RA
11:50 46.2 °F /  7.9 °C 46.2 °F /  7.9 °C 29.52 in /  999.5 hPa Calm     100 % 0.15 in /  3.81 mm 50.4 W/m2 RA
11:55 46.0 °F /  7.8 °C 46.0 °F /  7.8 °C 29.53 in /  999.9 hPa SSW 7.0 mph /  11.3 km/h 7.0 mph /  11.3 km/h 100 % 0.15 in /  3.81 mm 65.2 W/m2 RA
12:00 45.3 °F /  7.4 °C 45.3 °F /  7.4 °C 29.53 in /  999.9 hPa WNW 2.3 mph /  3.7 km/h 2.3 mph /  3.7 km/h 100 % 0.14 in /  3.56 mm 57.0 W/m2 RA
12:06 44.6 °F /  7 °C 44.6 °F /  7 °C 29.53 in /  999.9 hPa Calm     100 % 0.11 in /  2.79 mm 67.2 W/m2 RA
12:11 44.6 °F /  7 °C 44.6 °F /  7 °C 29.53 in /  999.9 hPa WSW 9.2 mph /  14.8 km/h 9.2 mph /  14.8 km/h 100 % 0.12 in /  3.05 mm 67.3 W/m2 RA
12:16 44.6 °F /  7 °C 44.6 °F /  7 °C 29.53 in /  999.9 hPa West 4.0 mph /  6.4 km/h 4.0 mph /  6.4 km/h 100 % 0.11 in /  2.79 mm 55.5 W/m2 RA
12:21 45.0 °F /  7.2 °C 45.0 °F /  7.2 °C 29.53 in /  999.9 hPa Calm     100 % 0.12 in /  3.05 mm 81.2 W/m2 RA
12:26 45.3 °F /  7.4 °C 45.3 °F /  7.4 °C 29.53 in /  999.9 hPa WNW 0.4 mph /  0.6 km/h   100 % 0.10 in /  2.54 mm 81.1 W/m2 RA
12:31 45.1 °F /  7.3 °C 45.1 °F /  7.3 °C 29.53 in /  999.9 hPa WSW 3.5 mph /  5.6 km/h 3.5 mph /  5.6 km/h 100 % 0.09 in /  2.29 mm 78.0 W/m2 OVC
12:36 45.3 °F /  7.4 °C 45.3 °F /  7.4 °C 29.53 in /  999.9 hPa Calm     100 % 0.08 in /  2.03 mm 112.6 W/m2 RA
12:41 45.9 °F /  7.7 °C 45.9 °F /  7.7 °C 29.53 in /  999.9 hPa Calm     100 % 0.05 in /  1.27 mm 122.0 W/m2 RA
12:46 45.7 °F /  7.6 °C 45.7 °F /  7.6 °C 29.53 in /  999.9 hPa WSW 10.5 mph /  16.9 km/h 10.5 mph /  16.9 km/h 100 % 0.04 in /  1.02 mm 88.5 W/m2 RA
12:51 45.5 °F /  7.5 °C 45.5 °F /  7.5 °C 29.53 in /  999.9 hPa SW 1.2 mph /  1.9 km/h 1.2 mph /  1.9 km/h 100 % 0.04 in /  1.02 mm 70.2 W/m2 RA
12:56 45.7 °F /  7.6 °C 45.7 °F /  7.6 °C 29.53 in /  999.9 hPa East 2.3 mph /  3.7 km/h 2.3 mph /  3.7 km/h 100 % 0.04 in /  1.02 mm 81.9 W/m2 RA
13:01 45.7 °F /  7.6 °C 45.7 °F /  7.6 °C 29.53 in /  999.9 hPa West 0.8 mph /  1.3 km/h 0.8 mph /  1.3 km/h 100 % 0.03 in /  0.76 mm 76.5 W/m2 OVC
13:06 45.5 °F /  7.5 °C 45.5 °F /  7.5 °C 29.53 in /  999.9 hPa SSW 8.1 mph /  13 km/h 8.1 mph /  13 km/h 100 % 0.03 in /  0.76 mm 122.9 W/m2 OVC
13:12 45.7 °F /  7.6 °C 45.7 °F /  7.6 °C 29.54 in /  1000.2 hPa SSW 6.9 mph /  11.1 km/h 6.9 mph /  11.1 km/h 100 % 0.02 in /  0.51 mm 116.7 W/m2 OVC
13:17 45.9 °F /  7.7 °C 45.9 °F /  7.7 °C 29.53 in /  999.9 hPa West 2.3 mph /  3.7 km/h 2.3 mph /  3.7 km/h 100 % 0.02 in /  0.51 mm 155.4 W/m2 BKN
13:22 45.9 °F /  7.7 °C 45.9 °F /  7.7 °C 29.53 in /  999.9 hPa West 6.9 mph /  11.1 km/h 6.9 mph /  11.1 km/h 100 % 0.02 in /  0.51 mm 156.6 W/m2 RA
13:27 46.2 °F /  7.9 °C 46.2 °F /  7.9 °C 29.53 in /  999.9 hPa SE 1.2 mph /  1.9 km/h   100 % 0.02 in /  0.51 mm 212.6 W/m2 RA
13:32 46.8 °F /  8.2 °C 46.8 °F /  8.2 °C 29.54 in /  1000.2 hPa NNW 9.2 mph /  14.8 km/h 9.2 mph /  14.8 km/h 100 % 0.02 in /  0.51 mm 175.5 W/m2 BKN
13:37 47.1 °F /  8.4 °C 47.1 °F /  8.4 °C 29.54 in /  1000.2 hPa SSW 9.2 mph /  14.8 km/h 9.2 mph /  14.8 km/h 100 % 0.02 in /  0.51 mm 263.2 W/m2 BKN
13:42 47.3 °F /  8.5 °C 47.3 °F /  8.5 °C 29.54 in /  1000.2 hPa SW 6.9 mph /  11.1 km/h 6.9 mph /  11.1 km/h 100 % 0.02 in /  0.51 mm 157.0 W/m2 BKN
13:47 47.1 °F /  8.4 °C 47.1 °F /  8.4 °C 29.54 in /  1000.2 hPa WSW 8.1 mph /  13 km/h 8.1 mph /  13 km/h 100 % 0.02 in /  0.51 mm 72.0 W/m2 OVC
13:52 46.4 °F /  8 °C 46.4 °F /  8 °C 29.55 in /  1000.6 hPa West 9.5 mph /  15.3 km/h 9.5 mph /  15.3 km/h 100 % 0.01 in /  0.25 mm 70.2 W/m2 OVC
13:57 46.4 °F /  8 °C 46.4 °F /  8 °C 29.55 in /  1000.6 hPa NE 9.0 mph /  14.5 km/h 9.0 mph /  14.5 km/h 100 % 0.01 in /  0.25 mm 109.3 W/m2 OVC
14:02 46.2 °F /  7.9 °C 46.2 °F /  7.9 °C 29.55 in /  1000.6 hPa NW 2.3 mph /  3.7 km/h 2.3 mph /  3.7 km/h 100 % 0.01 in /  0.25 mm 154.3 W/m2 BKN
14:07 46.2 °F /  7.9 °C 46.2 °F /  7.9 °C 29.55 in /  1000.6 hPa SSW 3.6 mph /  5.8 km/h 3.6 mph /  5.8 km/h 100 % 0.01 in /  0.25 mm 85.2 W/m2 OVC
14:12 46.0 °F /  7.8 °C 46.0 °F /  7.8 °C 29.55 in /  1000.6 hPa West 7.2 mph /  11.6 km/h 7.2 mph /  11.6 km/h 100 % 0.01 in /  0.25 mm 57.0 W/m2 OVC
14:17 46.2 °F /  7.9 °C 46.2 °F /  7.9 °C 29.55 in /  1000.6 hPa SW 4.6 mph /  7.4 km/h 4.6 mph /  7.4 km/h 100 % 0.01 in /  0.25 mm 133.4 W/m2 BKN
14:22 46.2 °F /  7.9 °C 46.2 °F /  7.9 °C 29.54 in /  1000.2 hPa NNW 1.7 mph /  2.7 km/h 1.7 mph /  2.7 km/h 100 % 0.00 in /  0 mm 121.9 W/m2 BKN
14:27 46.6 °F /  8.1 °C 46.6 °F /  8.1 °C 29.55 in /  1000.6 hPa SW 2.8 mph /  4.5 km/h 2.8 mph /  4.5 km/h 100 % 0.00 in /  0 mm 81.0 W/m2 OVC
14:32 46.4 °F /  8 °C 46.4 °F /  8 °C 29.55 in /  1000.6 hPa WNW 2.3 mph /  3.7 km/h   100 % 0.00 in /  0 mm 64.5 W/m2 OVC
14:37 46.4 °F /  8 °C 46.1 °F /  7.8 °C 29.55 in /  1000.6 hPa WSW 4.4 mph /  7.1 km/h 4.4 mph /  7.1 km/h 99 % 0.00 in /  0 mm 115.1 W/m2 BKN
14:42 46.6 °F /  8.1 °C 46.3 °F /  7.9 °C 29.55 in /  1000.6 hPa SSW 7.9 mph /  12.7 km/h 7.9 mph /  12.7 km/h 99 % 0.00 in /  0 mm 171.7 W/m2 BKN
14:47 46.9 °F /  8.3 °C 46.9 °F /  8.3 °C 29.54 in /  1000.2 hPa West 6.1 mph /  9.8 km/h 6.1 mph /  9.8 km/h 100 % 0.00 in /  0 mm 189.0 W/m2 BKN
14:53 47.7 °F /  8.7 °C 47.7 °F /  8.7 °C 29.54 in /  1000.2 hPa WSW 3.5 mph /  5.6 km/h 3.5 mph /  5.6 km/h 100 % 0.00 in /  0 mm 282.4 W/m2 SCT
14:58 47.8 °F /  8.8 °C 47.3 °F /  8.5 °C 29.55 in /  1000.6 hPa NW 5.8 mph /  9.3 km/h 5.8 mph /  9.3 km/h 98 % 0.00 in /  0 mm 129.4 W/m2 BKN
15:03 48.0 °F /  8.9 °C 47.5 °F /  8.6 °C 29.55 in /  1000.6 hPa Calm     98 % 0.00 in /  0 mm 112.5 W/m2 BKN
15:08 48.2 °F /  9 °C 47.9 °F /  8.8 °C 29.55 in /  1000.6 hPa SSW 5.1 mph /  8.2 km/h 5.1 mph /  8.2 km/h 99 % 0.00 in /  0 mm 342.2 W/m2 FEW
15:13 48.2 °F /  9 °C 46.8 °F /  8.2 °C 29.55 in /  1000.6 hPa SW 6.9 mph /  11.1 km/h 6.9 mph /  11.1 km/h 95 % 0.00 in /  0 mm 220.5 W/m2 SCT
15:18 48.0 °F /  8.9 °C 46.1 °F /  7.8 °C 29.55 in /  1000.6 hPa WNW 1.2 mph /  1.9 km/h   93 % 0.00 in /  0 mm 52.8 W/m2 OVC
15:23 48.0 °F /  8.9 °C 46.1 °F /  7.8 °C 29.55 in /  1000.6 hPa WNW 5.5 mph /  8.9 km/h 5.5 mph /  8.9 km/h 93 % 0.00 in /  0 mm 37.2 W/m2 OVC
15:28 47.8 °F /  8.8 °C 45.9 °F /  7.7 °C 29.55 in /  1000.6 hPa WSW 2.6 mph /  4.2 km/h 2.6 mph /  4.2 km/h 93 % 0.00 in /  0 mm 31.3 W/m2 OVC
15:30 47.7 °F /  8.7 °C 45.5 °F /  7.5 °C 29.55 in /  1000.6 hPa SSW 4.7 mph /  7.6 km/h 4.7 mph /  7.6 km/h 92 % 0.00 in /  0 mm 126.0 W/m2 OVC
15:35 47.7 °F /  8.7 °C 44.9 °F /  7.2 °C 29.55 in /  1000.6 hPa SSE 1.7 mph /  2.7 km/h 1.7 mph /  2.7 km/h 90 % 0.00 in /  0 mm 31.9 W/m2 OVC
15:40 47.8 °F /  8.8 °C 45.6 °F /  7.6 °C 29.55 in /  1000.6 hPa SSW 1.5 mph /  2.4 km/h 1.5 mph /  2.4 km/h 92 % 0.00 in /  0 mm 60.0 W/m2 OVC
15:45 48.6 °F /  9.2 °C 46.3 °F /  7.9 °C 29.55 in /  1000.6 hPa SSW 4.8 mph /  7.7 km/h 4.8 mph /  7.7 km/h 92 % 0.00 in /  0 mm 124.5 W/m2 OVC
15:50 48.6 °F /  9.2 °C 45.8 °F /  7.7 °C 29.55 in /  1000.6 hPa West 5.8 mph /  9.3 km/h 5.8 mph /  9.3 km/h 90 % 0.00 in /  0 mm 43.5 W/m2 OVC
15:55 48.7 °F /  9.3 °C 45.9 °F /  7.7 °C 29.54 in /  1000.2 hPa ENE 3.5 mph /  5.6 km/h 3.5 mph /  5.6 km/h 90 % 0.00 in /  0 mm 39.0 W/m2 OVC
16:00 48.6 °F /  9.2 °C 45.5 °F /  7.5 °C 29.55 in /  1000.6 hPa Calm     89 % 0.00 in /  0 mm 66.0 W/m2 OVC
16:05 48.0 °F /  8.9 °C 45.5 °F /  7.5 °C 29.55 in /  1000.6 hPa Calm     91 % 0.00 in /  0 mm 36.0 W/m2 OVC
16:10 47.7 °F /  8.7 °C 45.7 °F /  7.6 °C 29.55 in /  1000.6 hPa Calm     93 % 0.00 in /  0 mm 30.2 W/m2 OVC
16:15 47.3 °F /  8.5 °C 45.1 °F /  7.3 °C 29.55 in /  1000.6 hPa ENE 2.3 mph /  3.7 km/h   92 % 0.00 in /  0 mm 97.5 W/m2 OVC
16:20 47.1 °F /  8.4 °C 44.6 °F /  7 °C 29.55 in /  1000.6 hPa WNW 1.2 mph /  1.9 km/h   91 % 0.00 in /  0 mm 29.7 W/m2 OVC
16:25 47.3 °F /  8.5 °C 44.8 °F /  7.1 °C 29.55 in /  1000.6 hPa SW 8.0 mph /  12.9 km/h 8.0 mph /  12.9 km/h 91 % 0.00 in /  0 mm 24.6 W/m2 OVC
16:31 47.7 °F /  8.7 °C 43.4 °F /  6.3 °C 29.55 in /  1000.6 hPa West 3.5 mph /  5.6 km/h 3.5 mph /  5.6 km/h 85 % 0.00 in /  0 mm 81.0 W/m2 OVC
16:36 47.7 °F /  8.7 °C 41.8 °F /  5.4 °C 29.55 in /  1000.6 hPa South 6.1 mph /  9.8 km/h 6.1 mph /  9.8 km/h 80 % 0.00 in /  0 mm 11.6 W/m2 OVC
16:41 47.5 °F /  8.6 °C 41.0 °F /  5 °C 29.55 in /  1000.6 hPa West 9.2 mph /  14.8 km/h 9.2 mph /  14.8 km/h 78 % 0.00 in /  0 mm 8.3 W/m2 OVC
16:46 47.1 °F /  8.4 °C 41.3 °F /  5.2 °C 29.55 in /  1000.6 hPa West 10.4 mph /  16.7 km/h 10.4 mph /  16.7 km/h 80 % 0.00 in /  0 mm 72.0 W/m2 OVC
16:51 46.8 °F /  8.2 °C 40.9 °F /  4.9 °C 29.56 in /  1000.9 hPa West 5.8 mph /  9.3 km/h 5.8 mph /  9.3 km/h 80 % 0.00 in /  0 mm 9.9 W/m2 OVC
16:56 46.4 °F /  8 °C 42.7 °F /  5.9 °C 29.56 in /  1000.9 hPa WSW 2.3 mph /  3.7 km/h 2.3 mph /  3.7 km/h 87 % 0.00 in /  0 mm 9.3 W/m2 OVC
17:01 46.4 °F /  8 °C 41.8 °F /  5.4 °C 29.56 in /  1000.9 hPa NW 5.2 mph /  8.4 km/h 5.2 mph /  8.4 km/h 84 % 0.00 in /  0 mm 57.0 W/m2 CLR
17:06 46.8 °F /  8.2 °C 41.2 °F /  5.1 °C 29.56 in /  1000.9 hPa West 9.7 mph /  15.6 km/h 9.7 mph /  15.6 km/h 81 % 0.00 in /  0 mm 12.3 W/m2 CLR
17:11 47.1 °F /  8.4 °C 41.6 °F /  5.3 °C 29.56 in /  1000.9 hPa Calm     81 % 0.00 in /  0 mm 9.8 W/m2 CLR
17:16 46.9 °F /  8.3 °C 40.8 °F /  4.9 °C 29.56 in /  1000.9 hPa West 16.3 mph /  26.2 km/h 16.3 mph /  26.2 km/h 79 % 0.00 in /  0 mm 51.0 W/m2 CLR
17:21 46.8 °F /  8.2 °C 41.2 °F /  5.1 °C 29.56 in /  1000.9 hPa Calm     81 % 0.00 in /  0 mm 2.5 W/m2 CLR
17:26 45.9 °F /  7.7 °C 41.3 °F /  5.2 °C 29.56 in /  1000.9 hPa North 3.7 mph /  6 km/h 3.7 mph /  6 km/h 84 % 0.00 in /  0 mm 2.4 W/m2 CLR
17:31 45.9 °F /  7.7 °C 41.0 °F /  5 °C 29.56 in /  1000.9 hPa West 5.0 mph /  8 km/h 5.0 mph /  8 km/h 83 % 0.00 in /  0 mm 34.5 W/m2 CLR
17:36 45.5 °F /  7.5 °C 41.6 °F /  5.3 °C 29.56 in /  1000.9 hPa NW 2.3 mph /  3.7 km/h 2.3 mph /  3.7 km/h 86 % 0.00 in /  0 mm 1.2 W/m2 CLR
17:41 45.1 °F /  7.3 °C 40.9 °F /  4.9 °C 29.56 in /  1000.9 hPa NW 1.2 mph /  1.9 km/h 1.2 mph /  1.9 km/h 85 % 0.00 in /  0 mm 1.2 W/m2 CLR
17:46 45.1 °F /  7.3 °C 40.0 °F /  4.4 °C 29.57 in /  1001.2 hPa NW 4.7 mph /  7.6 km/h 4.7 mph /  7.6 km/h 82 % 0.00 in /  0 mm 12.0 W/m2 CLR
17:51 45.1 °F /  7.3 °C 40.0 °F /  4.4 °C 29.57 in /  1001.2 hPa NW 3.5 mph /  5.6 km/h 3.5 mph /  5.6 km/h 82 % 0.00 in /  0 mm 0.5 W/m2 CLR
17:56 45.0 °F /  7.2 °C 39.5 °F /  4.2 °C 29.57 in /  1001.2 hPa West 1.2 mph /  1.9 km/h   81 % 0.00 in /  0 mm 0.3 W/m2 CLR
18:01 44.4 °F /  6.9 °C 40.8 °F /  4.9 °C 29.57 in /  1001.2 hPa SSW 1.2 mph /  1.9 km/h   87 % 0.00 in /  0 mm 18.0 W/m2 CLR
18:06 43.7 °F /  6.5 °C 40.7 °F /  4.8 °C 29.57 in /  1001.2 hPa South 1.2 mph /  1.9 km/h 1.2 mph /  1.9 km/h 89 % 0.00 in /  0 mm 0.0 W/m2 CLR
18:11 43.5 °F /  6.4 °C 40.5 °F /  4.7 °C 29.57 in /  1001.2 hPa WSW 1.2 mph /  1.9 km/h 1.2 mph /  1.9 km/h 89 % 0.00 in /  0 mm 12.0 W/m2 CLR
18:16 43.0 °F /  6.1 °C 40.8 °F /  4.9 °C 29.57 in /  1001.2 hPa Calm     92 % 0.00 in /  0 mm 12.0 W/m2 CLR
18:22 42.6 °F /  5.9 °C 41.0 °F /  5 °C 29.57 in /  1001.2 hPa Calm     94 % 0.00 in /  0 mm 12.0 W/m2 CLR
18:27 42.6 °F /  5.9 °C 40.7 °F /  4.8 °C 29.57 in /  1001.2 hPa Calm     93 % 0.00 in /  0 mm 0.0 W/m2 CLR
18:32 42.6 °F /  5.9 °C 41.3 °F /  5.2 °C 29.58 in /  1001.6 hPa Calm     95 % 0.00 in /  0 mm 10.5 W/m2 CLR
18:37 43.0 °F /  6.1 °C 40.8 °F /  4.9 °C 29.58 in /  1001.6 hPa Calm     92 % 0.00 in /  0 mm 0.0 W/m2 CLR
18:42 43.2 °F /  6.2 °C 41.0 °F /  5 °C 29.58 in /  1001.6 hPa Calm     92 % 0.00 in /  0 mm 0.0 W/m2 CLR
18:47 43.3 °F /  6.3 °C 40.9 °F /  4.9 °C 29.58 in /  1001.6 hPa SW 1.9 mph /  3.1 km/h 1.9 mph /  3.1 km/h 91 % 0.00 in /  0 mm 12.0 W/m2 CLR
18:52 43.7 °F /  6.5 °C 40.4 °F /  4.7 °C 29.58 in /  1001.6 hPa Calm     88 % 0.00 in /  0 mm 0.0 W/m2 CLR
18:57 43.5 °F /  6.4 °C 41.4 °F /  5.2 °C 29.58 in /  1001.6 hPa Calm     92 % 0.00 in /  0 mm 0.0 W/m2 CLR
19:02 43.7 °F /  6.5 °C 41.5 °F /  5.3 °C 29.58 in /  1001.6 hPa SE 13.5 mph /  21.7 km/h 13.5 mph /  21.7 km/h 92 % 0.00 in /  0 mm 10.5 W/m2
19:07 44.2 °F /  6.8 °C 41.5 °F /  5.3 °C 29.58 in /  1001.6 hPa NNW 4.8 mph /  7.7 km/h 4.8 mph /  7.7 km/h 90 % 0.00 in /  0 mm 0.0 W/m2 CLR
19:12 44.2 °F /  6.8 °C 41.2 °F /  5.1 °C 29.58 in /  1001.6 hPa WSW 2.3 mph /  3.7 km/h 2.3 mph /  3.7 km/h 89 % 0.00 in /  0 mm 0.0 W/m2 CLR
19:17 44.4 °F /  6.9 °C 41.4 °F /  5.2 °C 29.58 in /  1001.6 hPa SSW 5.8 mph /  9.3 km/h 5.8 mph /  9.3 km/h 89 % 0.00 in /  0 mm 10.5 W/m2 CLR
19:22 44.4 °F /  6.9 °C 41.4 °F /  5.2 °C 29.58 in /  1001.6 hPa WNW 2.3 mph /  3.7 km/h 2.3 mph /  3.7 km/h 89 % 0.00 in /  0 mm 0.0 W/m2 CLR
19:27 44.2 °F /  6.8 °C 41.8 °F /  5.4 °C 29.58 in /  1001.6 hPa WSW 3.5 mph /  5.6 km/h 3.5 mph /  5.6 km/h 91 % 0.00 in /  0 mm 0.0 W/m2 CLR
19:32 44.2 °F /  6.8 °C 41.8 °F /  5.4 °C 29.58 in /  1001.6 hPa SSW 3.5 mph /  5.6 km/h 3.5 mph /  5.6 km/h 91 % 0.00 in /  0 mm 21.0 W/m2
19:38 44.4 °F /  6.9 °C 41.1 °F /  5.1 °C 29.59 in /  1001.9 hPa SSE 8.1 mph /  13 km/h 8.1 mph /  13 km/h 88 % 0.00 in /  0 mm 0.0 W/m2 CLR
19:43 44.2 °F /  6.8 °C 40.9 °F /  4.9 °C 29.59 in /  1001.9 hPa West 12.7 mph /  20.4 km/h 12.7 mph /  20.4 km/h 88 % 0.00 in /  0 mm 0.0 W/m2 CLR
19:48 44.1 °F /  6.7 °C 40.1 °F /  4.5 °C 29.60 in /  1002.3 hPa South 9.7 mph /  15.6 km/h 9.7 mph /  15.6 km/h 86 % 0.00 in /  0 mm 12.0 W/m2 CLR
19:53 43.9 °F /  6.6 °C 40.6 °F /  4.8 °C 29.60 in /  1002.3 hPa SW 13.0 mph /  20.9 km/h 13.0 mph /  20.9 km/h 88 % 0.00 in /  0 mm 12.0 W/m2 CLR
19:58 43.5 °F /  6.4 °C 40.5 °F /  4.7 °C 29.60 in /  1002.3 hPa SW 8.1 mph /  13 km/h 8.1 mph /  13 km/h 89 % 0.00 in /  0 mm 0.0 W/m2 CLR
20:03 43.2 °F /  6.2 °C 40.4 °F /  4.7 °C 29.60 in /  1002.3 hPa SE 6.9 mph /  11.1 km/h 6.9 mph /  11.1 km/h 90 % 0.00 in /  0 mm 10.5 W/m2 CLR
20:09 42.8 °F /  6 °C 40.1 °F /  4.5 °C 29.60 in /  1002.3 hPa WSW 6.9 mph /  11.1 km/h 6.9 mph /  11.1 km/h 90 % 0.00 in /  0 mm 10.5 W/m2 CLR
20:14 42.4 °F /  5.8 °C 40.3 °F /  4.6 °C 29.60 in /  1002.3 hPa West 2.3 mph /  3.7 km/h 2.3 mph /  3.7 km/h 92 % 0.00 in /  0 mm 0.0 W/m2 CLR
20:19 42.4 °F /  5.8 °C 40.0 °F /  4.4 °C 29.60 in /  1002.3 hPa West 3.6 mph /  5.8 km/h 3.6 mph /  5.8 km/h 91 % 0.00 in /  0 mm 10.5 W/m2 CLR
20:24 42.4 °F /  5.8 °C 40.3 °F /  4.6 °C 29.60 in /  1002.3 hPa Calm     92 % 0.00 in /  0 mm 18.0 W/m2 CLR
20:31 42.1 °F /  5.6 °C 40.2 °F /  4.6 °C 29.60 in /  1002.3 hPa SSW 5.8 mph /  9.3 km/h 5.8 mph /  9.3 km/h 93 % 0.00 in /  0 mm 0.0 W/m2 CLR
20:36 41.9 °F /  5.5 °C 40.0 °F /  4.4 °C 29.60 in /  1002.3 hPa NNW 4.4 mph /  7.1 km/h 4.4 mph /  7.1 km/h 93 % 0.00 in /  0 mm 12.0 W/m2 CLR
20:41 41.7 °F /  5.4 °C 39.8 °F /  4.3 °C 29.60 in /  1002.3 hPa SSW 3.3 mph /  5.3 km/h 3.3 mph /  5.3 km/h 93 % 0.00 in /  0 mm 9.0 W/m2 CLR
20:46 41.5 °F /  5.3 °C 39.9 °F /  4.4 °C 29.60 in /  1002.3 hPa WSW 5.8 mph /  9.3 km/h 5.8 mph /  9.3 km/h 94 % 0.00 in /  0 mm 0.0 W/m2 CLR
20:51 41.4 °F /  5.2 °C 40.0 °F /  4.4 °C 29.60 in /  1002.3 hPa SW 2.3 mph /  3.7 km/h 2.3 mph /  3.7 km/h 95 % 0.00 in /  0 mm 10.5 W/m2 CLR
20:56 41.2 °F /  5.1 °C 40.1 °F /  4.5 °C 29.60 in /  1002.3 hPa SSE 5.8 mph /  9.3 km/h   96 % 0.00 in /  0 mm 12.0 W/m2 CLR
21:01 41.2 °F /  5.1 °C 40.1 °F /  4.5 °C 29.60 in /  1002.3 hPa South 2.3 mph /  3.7 km/h 2.3 mph /  3.7 km/h 96 % 0.00 in /  0 mm 0.0 W/m2 CLR
21:06 41.2 °F /  5.1 °C 40.4 °F /  4.7 °C 29.60 in /  1002.3 hPa SW 1.2 mph /  1.9 km/h 1.2 mph /  1.9 km/h 97 % 0.00 in /  0 mm 12.0 W/m2 CLR
21:11 41.2 °F /  5.1 °C 40.4 °F /  4.7 °C 29.60 in /  1002.3 hPa West 10.2 mph /  16.4 km/h 10.2 mph /  16.4 km/h 97 % 0.00 in /  0 mm 9.0 W/m2 CLR
21:16 41.2 °F /  5.1 °C 40.1 °F /  4.5 °C 29.60 in /  1002.3 hPa East 1.4 mph /  2.3 km/h 1.4 mph /  2.3 km/h 96 % 0.00 in /  0 mm 0.0 W/m2 CLR
21:21 41.2 °F /  5.1 °C 40.4 °F /  4.7 °C 29.60 in /  1002.3 hPa WSW 1.7 mph /  2.7 km/h 1.7 mph /  2.7 km/h 97 % 0.00 in /  0 mm 10.5 W/m2 CLR
21:26 41.4 °F /  5.2 °C 40.6 °F /  4.8 °C 29.60 in /  1002.3 hPa WSW 7.7 mph /  12.4 km/h 7.7 mph /  12.4 km/h 97 % 0.00 in /  0 mm 10.5 W/m2 CLR
21:31 41.4 °F /  5.2 °C 40.6 °F /  4.8 °C 29.60 in /  1002.3 hPa East 8.4 mph /  13.5 km/h 8.4 mph /  13.5 km/h 97 % 0.00 in /  0 mm 0.0 W/m2 CLR
21:36 41.4 °F /  5.2 °C 40.6 °F /  4.8 °C 29.60 in /  1002.3 hPa WNW 6.9 mph /  11.1 km/h 6.9 mph /  11.1 km/h 97 % 0.00 in /  0 mm 10.5 W/m2 CLR
21:41 41.7 °F /  5.4 °C 40.7 °F /  4.8 °C 29.60 in /  1002.3 hPa South 0.7 mph /  1.1 km/h   96 % 0.00 in /  0 mm 10.5 W/m2 CLR
21:46 41.5 °F /  5.3 °C 40.8 °F /  4.9 °C 29.60 in /  1002.3 hPa SW 4.1 mph /  6.6 km/h 4.1 mph /  6.6 km/h 97 % 0.00 in /  0 mm 0.0 W/m2 CLR
21:52 41.4 °F /  5.2 °C 40.3 °F /  4.6 °C 29.60 in /  1002.3 hPa WSW 6.9 mph /  11.1 km/h 6.9 mph /  11.1 km/h 96 % 0.00 in /  0 mm 10.5 W/m2 CLR
21:57 41.2 °F /  5.1 °C 40.1 °F /  4.5 °C 29.60 in /  1002.3 hPa South 1.7 mph /  2.7 km/h 1.7 mph /  2.7 km/h 96 % 0.00 in /  0 mm 10.5 W/m2 CLR
22:02 41.0 °F /  5 °C 39.9 °F /  4.4 °C 29.58 in /  1001.6 hPa Calm     96 % 0.00 in /  0 mm 0.0 W/m2 CLR
22:07 40.8 °F /  4.9 °C 40.3 °F /  4.6 °C 29.58 in /  1001.6 hPa North 8.7 mph /  14 km/h 8.7 mph /  14 km/h 98 % 0.00 in /  0 mm 15.0 W/m2
22:12 40.5 °F /  4.7 °C 39.9 °F /  4.4 °C 29.58 in /  1001.6 hPa West 5.7 mph /  9.2 km/h 5.7 mph /  9.2 km/h 98 % 0.00 in /  0 mm 10.5 W/m2
22:17 40.5 °F /  4.7 °C 39.7 °F /  4.3 °C 29.59 in /  1001.9 hPa SSW 2.5 mph /  4 km/h 2.5 mph /  4 km/h 97 % 0.00 in /  0 mm 0.0 W/m2
22:22 40.3 °F /  4.6 °C 39.5 °F /  4.2 °C 29.59 in /  1001.9 hPa SW 1.2 mph /  1.9 km/h   97 % 0.00 in /  0 mm 16.5 W/m2
22:27 39.9 °F /  4.4 °C 39.4 °F /  4.1 °C 29.60 in /  1002.3 hPa SSE 1.2 mph /  1.9 km/h   98 % 0.00 in /  0 mm 12.0 W/m2
22:32 39.7 °F /  4.3 °C 39.5 °F /  4.2 °C 29.60 in /  1002.3 hPa Calm     99 % 0.00 in /  0 mm 0.0 W/m2
22:37 39.9 °F /  4.4 °C 39.4 °F /  4.1 °C 29.60 in /  1002.3 hPa South 1.4 mph /  2.3 km/h 1.4 mph /  2.3 km/h 98 % 0.00 in /  0 mm 9.0 W/m2
22:42 39.7 °F /  4.3 °C 39.2 °F /  4 °C 29.60 in /  1002.3 hPa Calm     98 % 0.00 in /  0 mm 10.5 W/m2
22:47 39.6 °F /  4.2 °C 39.3 °F /  4.1 °C 29.59 in /  1001.9 hPa WSW 4.1 mph /  6.6 km/h 4.1 mph /  6.6 km/h 99 % 0.00 in /  0 mm 0.0 W/m2
22:52 39.7 °F /  4.3 °C 39.5 °F /  4.2 °C 29.60 in /  1002.3 hPa East 0.7 mph /  1.1 km/h   99 % 0.00 in /  0 mm 0.0 W/m2
22:57 39.6 °F /  4.2 °C 39.0 °F /  3.9 °C 29.60 in /  1002.3 hPa West 6.3 mph /  10.1 km/h 6.3 mph /  10.1 km/h 98 % 0.00 in /  0 mm 12.0 W/m2
23:02 39.6 °F /  4.2 °C 39.3 °F /  4.1 °C 29.60 in /  1002.3 hPa South 7.5 mph /  12.1 km/h 7.5 mph /  12.1 km/h 99 % 0.00 in /  0 mm 0.0 W/m2
23:07 40.1 °F /  4.5 °C 39.6 °F /  4.2 °C 29.60 in /  1002.3 hPa SW 4.4 mph /  7.1 km/h 4.4 mph /  7.1 km/h 98 % 0.00 in /  0 mm 10.5 W/m2
23:12 40.3 °F /  4.6 °C 39.8 °F /  4.3 °C 29.60 in /  1002.3 hPa South 1.2 mph /  1.9 km/h   98 % 0.00 in /  0 mm 12.0 W/m2
23:17 40.5 °F /  4.7 °C 39.9 °F /  4.4 °C 29.60 in /  1002.3 hPa NNW 5.0 mph /  8 km/h 5.0 mph /  8 km/h 98 % 0.00 in /  0 mm 0.0 W/m2
23:22 40.5 °F /  4.7 °C 39.7 °F /  4.3 °C 29.61 in /  1002.6 hPa ESE 2.3 mph /  3.7 km/h 2.3 mph /  3.7 km/h 97 % 0.00 in /  0 mm 0.0 W/m2
23:28 40.1 °F /  4.5 °C 39.6 °F /  4.2 °C 29.61 in /  1002.6 hPa SSE 3.5 mph /  5.6 km/h   98 % 0.00 in /  0 mm 9.0 W/m2
23:33 40.6 °F /  4.8 °C 40.4 °F /  4.7 °C 29.60 in /  1002.3 hPa South 1.2 mph /  1.9 km/h 1.2 mph /  1.9 km/h 99 % 0.00 in /  0 mm 0.0 W/m2
23:38 40.5 °F /  4.7 °C 40.2 °F /  4.6 °C 29.61 in /  1002.6 hPa West 6.9 mph /  11.1 km/h 6.9 mph /  11.1 km/h 99 % 0.00 in /  0 mm 0.0 W/m2
23:43 40.3 °F /  4.6 °C 40.0 °F /  4.4 °C 29.61 in /  1002.6 hPa WSW 2.3 mph /  3.7 km/h 2.3 mph /  3.7 km/h 99 % 0.00 in /  0 mm 9.0 W/m2
23:48 40.1 °F /  4.5 °C 39.8 °F /  4.3 °C 29.61 in /  1002.6 hPa WNW 4.3 mph /  6.9 km/h 4.3 mph /  6.9 km/h 99 % 0.00 in /  0 mm 0.0 W/m2
23:53 39.9 °F /  4.4 °C 39.7 °F /  4.3 °C 29.61 in /  1002.6 hPa NNW 1.2 mph /  1.9 km/h 1.2 mph /  1.9 km/h 99 % 0.00 in /  0 mm 0.0 W/m2
23:58 39.9 °F /  4.4 °C 39.4 °F /  4.1 °C 29.61 in /  1002.6 hPa Calm     98 % 0.00 in /  0 mm 9.0 W/m2
Wether-Above
Compliments of Weather Underground - 2.25 mb
Welcome to Weather-Above
Cheddleton weather station supplies various organisations with data from our weather station one of them is the weather Underground this information displayed here is coming from the weather Underground server 

If any information is used please acknowledge the source to www weather-above.com or weather Underground